createdAt,value
2023-06-17T00:00:07.803Z,66.19
2023-06-17T00:05:35.147Z,67.42
2023-06-17T00:08:01.544Z,67.25
2023-06-17T00:10:27.925Z,67.86
2023-06-17T00:12:55.568Z,68.11
2023-06-17T00:15:25.459Z,68.45
2023-06-17T00:17:52.784Z,68.03
2023-06-17T00:20:20.013Z,68.36
2023-06-17T00:22:48.038Z,68.56
2023-06-17T00:25:17.445Z,68.72
2023-06-17T00:27:45.349Z,68.98
2023-06-17T00:30:19.137Z,69.68
2023-06-17T00:32:47.991Z,70.55
2023-06-17T01:25:02.406Z,75.16
2023-06-17T01:27:33.115Z,74.70
2023-06-17T01:30:03.038Z,75.05
2023-06-17T01:32:36.410Z,75.49
2023-06-17T01:35:06.657Z,76.01
2023-06-17T01:37:42.604Z,76.01
2023-06-17T01:40:16.259Z,76.11
2023-06-17T01:42:48.973Z,76.26
2023-06-17T01:45:18.913Z,76.80
2023-06-17T01:47:48.367Z,76.74
2023-06-17T01:50:22.403Z,77.12
2023-06-17T01:52:52.757Z,76.86
2023-06-17T01:55:19.607Z,77.25
2023-06-17T01:57:55.463Z,77.43
2023-06-17T02:00:22.306Z,76.32
2023-06-17T02:02:51.147Z,78.56
2023-06-17T02:05:21.215Z,78.96
2023-06-17T02:07:50.911Z,78.28
2023-06-17T02:10:17.567Z,79.11
2023-06-17T02:12:47.862Z,80.17
2023-06-17T02:15:15.728Z,80.05
2023-06-17T02:17:47.266Z,82.18
2023-06-17T02:20:21.331Z,82.65
2023-06-17T02:22:50.870Z,81.80
2023-06-17T02:25:18.008Z,80.20
2023-06-17T02:27:47.347Z,79.55
2023-06-17T02:30:14.113Z,80.19
2023-06-17T02:32:40.769Z,80.44
2023-06-17T02:35:11.920Z,81.27
2023-06-17T02:37:42.219Z,81.66
2023-06-17T02:40:13.159Z,81.21
2023-06-17T02:42:40.721Z,81.18
2023-06-17T02:45:12.416Z,81.28
2023-06-17T02:47:42.306Z,82.29
2023-06-17T02:50:09.192Z,81.56
2023-06-17T02:52:43.773Z,81.53
2023-06-17T02:55:10.826Z,82.23
2023-06-17T02:57:41.509Z,81.69
2023-06-17T03:00:11.951Z,81.60
2023-06-17T03:02:40.941Z,81.94
2023-06-17T03:05:11.130Z,82.12
2023-06-17T03:07:49.004Z,82.57
2023-06-17T03:10:18.002Z,82.66
2023-06-17T03:12:50.236Z,83.00
2023-06-17T03:15:19.460Z,83.14
2023-06-17T03:17:48.064Z,83.97
2023-06-17T03:20:20.833Z,83.37
2023-06-17T03:22:48.589Z,83.88
2023-06-17T03:25:16.017Z,84.35
2023-06-17T03:27:46.657Z,84.68
2023-06-17T03:33:01.653Z,83.69
2023-06-17T03:35:31.050Z,85.13
2023-06-17T03:38:00.206Z,84.70
2023-06-17T03:40:26.675Z,84.33
2023-06-17T03:42:55.295Z,84.13
2023-06-17T03:48:07.036Z,85.87
2023-06-17T03:50:35.987Z,85.13
2023-06-17T03:53:02.393Z,84.17
2023-06-17T03:55:30.626Z,83.51
2023-06-17T03:58:01.253Z,82.80
2023-06-17T04:00:28.107Z,82.46
2023-06-17T04:02:58.837Z,82.44
2023-06-17T04:05:36.221Z,82.05
2023-06-17T04:08:07.308Z,81.37
2023-06-17T04:10:33.834Z,81.04
2023-06-17T04:13:08.503Z,81.05
2023-06-17T04:15:34.871Z,81.14
2023-06-17T04:18:07.037Z,81.28
2023-06-17T04:20:36.819Z,80.54
2023-06-17T04:23:04.798Z,80.58
2023-06-17T04:25:35.701Z,72.66
2023-06-17T04:28:02.668Z,62.47
2023-06-17T04:30:29.528Z,55.63
2023-06-17T04:33:01.912Z,52.59
2023-06-17T04:35:28.880Z,50.03
2023-06-17T04:37:58.457Z,47.68
2023-06-17T04:40:25.933Z,46.28
2023-06-17T04:42:53.031Z,44.48
2023-06-17T04:45:22.075Z,43.63
2023-06-17T04:47:51.536Z,43.16
2023-06-17T04:50:21.930Z,41.92
2023-06-17T04:52:52.999Z,40.86
2023-06-17T04:55:22.224Z,40.59
2023-06-17T04:57:49.212Z,40.15
2023-06-17T05:00:21.460Z,40.01
2023-06-17T05:02:51.538Z,39.71
2023-06-17T05:05:21.585Z,39.95
2023-06-17T05:07:55.670Z,38.60
2023-06-17T05:10:22.577Z,37.53
2023-06-17T05:12:57.901Z,37.32
2023-06-17T05:15:24.340Z,37.12
2023-06-17T05:17:51.163Z,36.51
2023-06-17T05:20:25.879Z,36.38
2023-06-17T05:22:52.333Z,35.82
2023-06-17T05:25:21.303Z,35.71
2023-06-17T05:27:50.236Z,35.21
2023-06-17T05:30:16.826Z,35.22
2023-06-17T05:32:46.011Z,34.86
2023-06-17T05:35:15.598Z,35.00
2023-06-17T05:37:42.017Z,34.95
2023-06-17T05:40:12.023Z,35.24
2023-06-17T05:42:41.599Z,34.49
2023-06-17T05:45:16.507Z,34.32
2023-06-17T05:47:43.000Z,33.88
2023-06-17T05:50:10.136Z,33.73
2023-06-17T05:52:38.909Z,32.43
2023-06-17T05:55:10.720Z,32.41
2023-06-17T06:00:24.155Z,32.56
2023-06-17T06:02:50.871Z,31.90
2023-06-17T06:05:17.388Z,30.26
2023-06-17T06:07:47.212Z,29.90
2023-06-17T06:10:16.989Z,30.30
2023-06-17T06:12:43.469Z,29.54
2023-06-17T06:15:12.749Z,30.10
2023-06-17T06:17:39.223Z,30.78
2023-06-17T06:20:06.301Z,31.68
2023-06-17T06:22:36.079Z,33.87
2023-06-17T06:25:02.559Z,34.81
2023-06-17T06:27:28.958Z,36.51
2023-06-17T07:21:49.859Z,40.16
2023-06-17T07:24:28.334Z,40.29
2023-06-17T07:26:54.725Z,40.18
2023-06-17T07:29:30.534Z,40.20
2023-06-17T07:31:56.977Z,39.04
2023-06-17T07:34:26.239Z,38.55
2023-06-17T07:36:55.916Z,38.82
2023-06-17T07:39:23.724Z,39.54
2023-06-17T07:41:50.465Z,39.47
2023-06-17T07:44:19.648Z,38.13
2023-06-17T07:46:48.702Z,38.32
2023-06-17T07:49:15.462Z,38.13
2023-06-17T07:51:41.910Z,37.73
2023-06-17T07:54:08.381Z,36.30
2023-06-17T07:59:20.953Z,36.77
2023-06-17T08:01:47.583Z,35.72
2023-06-17T08:04:14.069Z,35.35
2023-06-17T08:06:44.410Z,35.86
2023-06-17T08:09:10.985Z,35.63
2023-06-17T09:01:00.837Z,31.79
2023-06-17T09:03:42.397Z,32.47
2023-06-17T09:06:26.295Z,31.71
2023-06-17T09:09:02.299Z,31.61
2023-06-17T09:11:49.880Z,33.09
2023-06-17T09:14:26.615Z,32.92
2023-06-17T09:16:58.804Z,32.84
2023-06-17T09:19:31.164Z,33.33
2023-06-17T09:22:02.541Z,31.44
2023-06-17T09:24:32.269Z,31.07
2023-06-17T09:26:59.721Z,30.69
2023-06-17T09:29:34.191Z,30.48
2023-06-17T09:32:09.649Z,31.50
2023-06-17T09:34:50.163Z,32.65
2023-06-17T09:37:16.736Z,32.34
2023-06-17T09:39:48.237Z,32.35
2023-06-17T09:42:17.553Z,30.78
2023-06-17T09:44:47.723Z,30.66
2023-06-17T09:47:15.694Z,30.57
2023-06-17T09:49:46.809Z,31.32
2023-06-17T09:52:17.697Z,30.98
2023-06-17T09:54:47.359Z,31.01
2023-06-17T09:57:19.864Z,30.69
2023-06-17T09:59:58.688Z,31.26
2023-06-17T10:02:25.128Z,31.85
2023-06-17T10:04:51.813Z,30.64
2023-06-17T10:07:18.468Z,31.12
2023-06-17T10:09:54.427Z,30.82
2023-06-17T10:15:09.781Z,30.62
2023-06-17T10:17:40.855Z,29.83
2023-06-17T10:20:11.329Z,30.13
2023-06-17T10:22:41.141Z,29.11
2023-06-17T10:30:39.229Z,30.49
2023-06-17T10:33:05.656Z,29.52
2023-06-17T10:35:47.427Z,30.05
2023-06-17T10:38:30.237Z,29.21
2023-06-17T10:40:58.235Z,29.74
2023-06-17T10:43:29.356Z,28.54
2023-06-17T10:45:57.795Z,28.74
2023-06-17T10:48:34.397Z,28.64
2023-06-17T10:51:13.490Z,28.70
2023-06-17T10:53:49.777Z,28.79
2023-06-17T10:56:19.319Z,28.49
2023-06-17T10:58:52.424Z,28.56
2023-06-17T11:01:22.014Z,28.71
2023-06-17T11:03:56.025Z,28.35
2023-06-17T11:06:22.485Z,27.68
2023-06-17T11:08:48.885Z,27.89
2023-06-17T11:11:20.154Z,28.33
2023-06-17T11:13:48.513Z,27.58
2023-06-17T11:16:17.791Z,27.44
2023-06-17T11:18:52.107Z,27.39
2023-06-17T11:21:29.770Z,28.61
2023-06-17T11:23:56.338Z,27.03
2023-06-17T11:26:28.979Z,27.42
2023-06-17T11:28:59.451Z,27.14
2023-06-17T11:31:29.746Z,27.72
2023-06-17T11:34:00.503Z,27.13
2023-06-17T11:36:32.329Z,26.91
2023-06-17T11:39:02.148Z,26.76
2023-06-17T11:44:17.063Z,27.08
2023-06-17T11:46:43.980Z,25.95
2023-06-17T11:49:10.553Z,26.32
2023-06-17T11:51:48.690Z,26.74
2023-06-17T11:54:15.157Z,26.00
2023-06-17T11:56:42.792Z,25.96
2023-06-17T11:59:13.039Z,25.97
2023-06-17T12:01:44.898Z,26.65
2023-06-17T12:04:15.016Z,25.45
2023-06-17T12:06:47.806Z,25.99
2023-06-17T12:09:17.725Z,27.14
2023-06-17T12:14:28.692Z,27.25
2023-06-17T12:16:55.314Z,26.91
2023-06-17T12:19:26.038Z,26.82
2023-06-17T12:21:55.232Z,27.11
2023-06-17T12:24:24.757Z,26.06
2023-06-17T12:26:53.246Z,27.98
2023-06-17T12:29:26.561Z,27.83
2023-06-17T12:32:01.401Z,27.85
2023-06-17T12:34:30.566Z,27.38
2023-06-17T12:37:00.265Z,27.02
2023-06-17T12:39:26.667Z,27.19
2023-06-17T12:41:53.106Z,26.64
2023-06-17T12:44:19.532Z,26.89
2023-06-17T12:46:49.203Z,27.12
2023-06-17T12:49:18.704Z,26.65
2023-06-17T12:51:53.070Z,26.73
2023-06-17T12:54:19.512Z,26.85
2023-06-17T12:56:46.468Z,26.76
2023-06-17T12:59:16.002Z,26.77
2023-06-17T13:01:42.466Z,27.49
2023-06-17T13:04:08.971Z,26.82
2023-06-17T13:06:35.791Z,26.71
2023-06-17T13:09:02.582Z,26.41
2023-06-17T13:11:32.954Z,26.91
2023-06-17T13:13:59.665Z,26.75
2023-06-17T13:16:26.428Z,27.09
2023-06-17T13:18:57.356Z,26.71
2023-06-17T13:21:27.134Z,27.07
2023-06-17T13:23:56.689Z,26.55
2023-06-17T13:26:30.403Z,26.49
2023-06-17T13:29:02.280Z,26.79
2023-06-17T13:31:51.691Z,26.32
2023-06-17T13:34:21.578Z,25.68
2023-06-17T13:36:48.743Z,26.46
2023-06-17T13:39:32.461Z,25.95
2023-06-17T13:41:59.748Z,26.18
2023-06-17T13:44:30.651Z,25.61
2023-06-17T13:47:06.352Z,25.94
2023-06-17T13:49:33.412Z,26.06
2023-06-17T13:52:04.186Z,27.01
2023-06-17T13:54:30.620Z,25.94
2023-06-17T13:56:57.095Z,25.99
2023-06-17T13:59:31.592Z,25.73
2023-06-17T14:01:58.164Z,25.92
2023-06-17T14:04:25.691Z,26.15
2023-06-17T14:06:59.856Z,25.71
2023-06-17T14:09:30.614Z,25.70
2023-06-17T14:12:00.206Z,25.76
2023-06-17T14:14:26.628Z,26.11
2023-06-17T14:16:55.557Z,25.90
2023-06-17T14:19:25.034Z,25.91
2023-06-17T14:22:09.837Z,26.25
2023-06-17T14:24:46.734Z,25.79
2023-06-17T14:27:41.671Z,25.86
2023-06-17T14:30:13.011Z,25.37
2023-06-17T14:32:45.146Z,25.75
2023-06-17T14:35:14.282Z,25.86
2023-06-17T14:37:42.760Z,25.39
2023-06-17T14:40:17.402Z,26.02
2023-06-17T14:45:31.710Z,25.95
2023-06-17T14:47:58.326Z,25.81
2023-06-17T14:50:24.781Z,26.77
2023-06-17T14:52:59.466Z,25.87
2023-06-17T15:46:21.422Z,29.69
2023-06-17T15:48:54.680Z,30.18
2023-06-17T15:51:24.048Z,30.97
2023-06-17T15:53:52.154Z,31.61
2023-06-17T15:56:23.113Z,31.21
2023-06-17T15:58:53.007Z,32.21
2023-06-17T16:01:22.313Z,31.98
2023-06-17T16:03:48.860Z,32.54
2023-06-17T16:06:15.370Z,31.59
2023-06-17T16:08:46.426Z,32.17
2023-06-17T16:11:14.518Z,32.40
2023-06-17T16:13:47.562Z,32.79
2023-06-17T16:16:13.994Z,32.40
2023-06-17T16:18:43.620Z,33.54
2023-06-17T16:21:12.945Z,32.22
2023-06-17T16:23:46.901Z,32.47
2023-06-17T16:26:13.362Z,33.13
2023-06-17T16:28:40.787Z,32.98
2023-06-17T16:31:10.329Z,32.92
2023-06-17T16:33:39.646Z,33.01
2023-06-17T16:36:11.126Z,33.28
2023-06-17T16:38:40.887Z,33.02
2023-06-17T16:41:07.332Z,33.06
2023-06-17T16:43:42.939Z,32.51
2023-06-17T16:46:09.467Z,34.80
2023-06-17T16:48:38.977Z,36.39
2023-06-17T16:51:08.411Z,36.50
2023-06-17T16:53:35.604Z,36.06
2023-06-17T16:56:04.759Z,36.52
2023-06-17T16:58:31.507Z,36.42
2023-06-17T17:00:58.249Z,37.53
2023-06-17T17:03:33.612Z,37.27
2023-06-17T17:06:00.071Z,37.42
2023-06-17T17:11:12.264Z,38.28
2023-06-17T17:16:15.418Z,38.07
2023-06-17T17:18:41.882Z,38.72
2023-06-17T17:21:08.311Z,38.71
2023-06-17T17:23:35.091Z,39.11
2023-06-17T17:26:08.653Z,39.48
2023-06-17T17:31:18.566Z,39.86
2023-06-17T17:33:52.314Z,39.91
2023-06-17T17:36:23.978Z,40.13
2023-06-17T17:38:53.375Z,40.46
2023-06-17T17:41:20.311Z,40.26
2023-06-17T17:43:49.066Z,40.64
2023-06-17T17:46:15.485Z,40.67
2023-06-17T17:48:42.091Z,40.59
2023-06-17T17:53:49.489Z,41.32
2023-06-17T17:56:16.028Z,41.85
2023-06-17T17:58:42.530Z,41.45
2023-06-17T18:01:09.028Z,41.07
2023-06-17T18:03:35.625Z,41.14
2023-06-17T18:06:04.797Z,41.23
2023-06-17T18:08:31.233Z,41.03
2023-06-17T18:10:57.675Z,41.12
2023-06-17T18:13:24.726Z,41.42
2023-06-17T18:15:51.214Z,41.65
2023-06-17T18:18:17.672Z,42.13
2023-06-17T18:20:52.876Z,42.55
2023-06-17T18:23:19.302Z,41.99
2023-06-17T18:25:48.284Z,41.80
2023-06-17T18:28:18.318Z,42.84
2023-06-17T18:30:44.751Z,42.66
2023-06-17T18:33:11.210Z,42.56
2023-06-17T18:35:45.098Z,43.00
2023-06-17T18:38:22.573Z,42.59
2023-06-17T18:40:50.375Z,43.00
2023-06-17T18:43:26.388Z,43.33
2023-06-17T18:45:52.834Z,43.45
2023-06-17T18:48:21.848Z,43.72
2023-06-17T18:50:52.074Z,44.04
2023-06-17T18:53:23.270Z,44.05
2023-06-17T18:55:52.796Z,43.97
2023-06-17T18:58:19.237Z,44.18
2023-06-17T19:00:45.737Z,44.16
2023-06-17T19:03:19.802Z,44.27
2023-06-17T19:05:47.698Z,44.60
2023-06-17T19:08:14.263Z,44.61
2023-06-17T19:10:40.651Z,44.80
2023-06-17T19:13:07.005Z,45.08
2023-06-17T19:15:36.978Z,45.49
2023-06-17T19:18:06.631Z,45.58
2023-06-17T19:23:15.778Z,46.46
2023-06-17T19:25:43.228Z,46.05
2023-06-17T20:18:06.616Z,52.33
2023-06-17T20:20:36.083Z,52.80
2023-06-17T20:23:02.729Z,53.13
2023-06-17T20:28:10.893Z,53.56
2023-06-17T20:30:43.444Z,53.36
2023-06-17T20:33:09.968Z,53.75
2023-06-17T20:38:19.364Z,54.08
2023-06-17T20:40:49.282Z,54.04
2023-06-17T20:43:16.286Z,54.10
2023-06-17T20:45:45.752Z,54.37
2023-06-17T20:48:12.189Z,54.50
2023-06-17T20:50:38.617Z,54.80
2023-06-17T20:53:13.227Z,55.05
2023-06-17T20:55:39.698Z,55.00
2023-06-17T20:58:12.084Z,55.22
2023-06-17T21:00:38.716Z,55.11
2023-06-17T21:03:05.548Z,54.78
2023-06-17T21:05:36.549Z,55.19
2023-06-17T21:08:06.809Z,55.05
2023-06-17T21:10:35.818Z,55.79
2023-06-17T21:13:05.169Z,55.66
2023-06-17T21:15:31.640Z,55.95
2023-06-17T21:17:58.870Z,55.94
2023-06-17T21:20:28.878Z,56.75
2023-06-17T21:22:56.305Z,56.47
2023-06-17T21:25:23.337Z,55.82
2023-06-17T21:27:52.851Z,55.72
2023-06-17T21:30:19.297Z,55.79
2023-06-17T21:32:49.368Z,55.86
2023-06-17T21:35:18.908Z,55.61
2023-06-17T21:37:52.906Z,55.64
2023-06-17T21:40:24.079Z,55.36
2023-06-17T21:42:53.222Z,55.24
2023-06-17T21:45:22.852Z,55.00
2023-06-17T21:47:49.418Z,55.17
2023-06-17T21:50:19.604Z,55.36
2023-06-17T21:52:46.337Z,55.32
2023-06-17T22:46:33.381Z,54.21
2023-06-17T22:49:02.404Z,54.01
2023-06-17T22:51:32.061Z,54.56
2023-06-17T22:54:04.668Z,54.54
2023-06-17T22:56:33.904Z,54.67
2023-06-17T23:01:40.702Z,55.16
2023-06-17T23:04:10.340Z,55.44
2023-06-17T23:06:39.643Z,55.53
2023-06-17T23:09:10.933Z,55.74
